sensor_id;sensor_type;location;lat;lon;timestamp;P1;durP1;ratioP1;P2;durP2;ratioP2
41799;SDS011;27468;47.460;19.034;2024-03-02T00:01:53;37.47;;;26.37;;
41799;SDS011;27468;47.460;19.034;2024-03-02T00:04:18;38.87;;;27.50;;
41799;SDS011;27468;47.460;19.034;2024-03-02T00:06:44;39.47;;;27.93;;
41799;SDS011;27468;47.460;19.034;2024-03-02T00:09:09;37.20;;;26.95;;
41799;SDS011;27468;47.460;19.034;2024-03-02T00:11:39;39.88;;;27.20;;
41799;SDS011;27468;47.460;19.034;2024-03-02T00:14:05;38.75;;;27.70;;
41799;SDS011;27468;47.460;19.034;2024-03-02T00:16:31;38.77;;;27.47;;
41799;SDS011;27468;47.460;19.034;2024-03-02T00:19:01;37.13;;;26.75;;
41799;SDS011;27468;47.460;19.034;2024-03-02T00:21:27;40.00;;;28.60;;
41799;SDS011;27468;47.460;19.034;2024-03-02T00:23:55;38.47;;;27.30;;
41799;SDS011;27468;47.460;19.034;2024-03-02T00:26:20;39.35;;;26.95;;
41799;SDS011;27468;47.460;19.034;2024-03-02T00:28:46;41.28;;;28.05;;
41799;SDS011;27468;47.460;19.034;2024-03-02T00:31:12;40.03;;;27.77;;
41799;SDS011;27468;47.460;19.034;2024-03-02T00:36:11;37.00;;;26.33;;
41799;SDS011;27468;47.460;19.034;2024-03-02T00:38:47;35.85;;;26.10;;
41799;SDS011;27468;47.460;19.034;2024-03-02T00:41:15;37.63;;;26.27;;
41799;SDS011;27468;47.460;19.034;2024-03-02T00:44:09;34.58;;;24.45;;
41799;SDS011;27468;47.460;19.034;2024-03-02T00:46:38;34.90;;;24.90;;
41799;SDS011;27468;47.460;19.034;2024-03-02T00:49:17;35.70;;;24.63;;
41799;SDS011;27468;47.460;19.034;2024-03-02T00:51:46;35.53;;;24.92;;
41799;SDS011;27468;47.460;19.034;2024-03-02T00:54:18;35.33;;;24.60;;
41799;SDS011;27468;47.460;19.034;2024-03-02T00:56:46;34.45;;;23.80;;
41799;SDS011;27468;47.460;19.034;2024-03-02T00:59:12;35.70;;;23.27;;
41799;SDS011;27468;47.460;19.034;2024-03-02T01:01:37;35.80;;;23.90;;
41799;SDS011;27468;47.460;19.034;2024-03-02T01:04:03;34.73;;;24.57;;
41799;SDS011;27468;47.460;19.034;2024-03-02T01:06:28;34.33;;;23.70;;
41799;SDS011;27468;47.460;19.034;2024-03-02T01:08:55;34.70;;;22.93;;
41799;SDS011;27468;47.460;19.034;2024-03-02T01:11:20;33.23;;;23.17;;
41799;SDS011;27468;47.460;19.034;2024-03-02T01:13:48;32.88;;;23.55;;
41799;SDS011;27468;47.460;19.034;2024-03-02T01:16:14;35.50;;;23.90;;
41799;SDS011;27468;47.460;19.034;2024-03-02T01:18:40;34.97;;;24.20;;
41799;SDS011;27468;47.460;19.034;2024-03-02T01:21:06;34.67;;;24.02;;
41799;SDS011;27468;47.460;19.034;2024-03-02T01:23:31;34.63;;;24.83;;
41799;SDS011;27468;47.460;19.034;2024-03-02T01:25:56;36.05;;;25.08;;
41799;SDS011;27468;47.460;19.034;2024-03-02T01:28:22;33.17;;;23.83;;
41799;SDS011;27468;47.460;19.034;2024-03-02T01:30:47;33.77;;;24.23;;
41799;SDS011;27468;47.460;19.034;2024-03-02T01:33:14;34.87;;;24.93;;
41799;SDS011;27468;47.460;19.034;2024-03-02T01:35:39;34.63;;;24.33;;
41799;SDS011;27468;47.460;19.034;2024-03-02T01:38:04;34.33;;;24.53;;
41799;SDS011;27468;47.460;19.034;2024-03-02T01:40:33;35.00;;;23.63;;
41799;SDS011;27468;47.460;19.034;2024-03-02T01:42:59;34.88;;;24.27;;
41799;SDS011;27468;47.460;19.034;2024-03-02T01:45:25;34.65;;;24.73;;
41799;SDS011;27468;47.460;19.034;2024-03-02T01:47:50;32.95;;;24.02;;
41799;SDS011;27468;47.460;19.034;2024-03-02T01:50:16;32.97;;;23.50;;
41799;SDS011;27468;47.460;19.034;2024-03-02T01:52:50;35.78;;;24.63;;
41799;SDS011;27468;47.460;19.034;2024-03-02T01:55:16;36.78;;;25.40;;
41799;SDS011;27468;47.460;19.034;2024-03-02T01:57:41;36.57;;;25.07;;
41799;SDS011;27468;47.460;19.034;2024-03-02T02:00:06;34.75;;;25.27;;
41799;SDS011;27468;47.460;19.034;2024-03-02T02:02:32;33.73;;;24.20;;
41799;SDS011;27468;47.460;19.034;2024-03-02T02:04:58;35.03;;;23.67;;
41799;SDS011;27468;47.460;19.034;2024-03-02T02:07:23;32.40;;;23.40;;
41799;SDS011;27468;47.460;19.034;2024-03-02T02:09:48;33.83;;;23.27;;
41799;SDS011;27468;47.460;19.034;2024-03-02T02:12:14;35.50;;;23.90;;
41799;SDS011;27468;47.460;19.034;2024-03-02T02:14:46;33.45;;;23.10;;
41799;SDS011;27468;47.460;19.034;2024-03-02T02:17:12;33.70;;;23.52;;
41799;SDS011;27468;47.460;19.034;2024-03-02T02:19:37;33.97;;;22.83;;
41799;SDS011;27468;47.460;19.034;2024-03-02T02:22:05;32.80;;;22.88;;
41799;SDS011;27468;47.460;19.034;2024-03-02T02:24:31;33.83;;;22.87;;
41799;SDS011;27468;47.460;19.034;2024-03-02T02:26:56;33.63;;;23.13;;
41799;SDS011;27468;47.460;19.034;2024-03-02T02:29:21;32.77;;;22.87;;
41799;SDS011;27468;47.460;19.034;2024-03-02T02:31:47;33.27;;;22.93;;
41799;SDS011;27468;47.460;19.034;2024-03-02T02:34:13;33.80;;;23.73;;
41799;SDS011;27468;47.460;19.034;2024-03-02T02:36:39;33.30;;;24.17;;
41799;SDS011;27468;47.460;19.034;2024-03-02T02:39:05;34.50;;;24.02;;
41799;SDS011;27468;47.460;19.034;2024-03-02T02:41:33;34.70;;;23.38;;
41799;SDS011;27468;47.460;19.034;2024-03-02T02:43:58;31.13;;;22.87;;
41799;SDS011;27468;47.460;19.034;2024-03-02T02:46:23;32.30;;;22.43;;
41799;SDS011;27468;47.460;19.034;2024-03-02T02:48:49;34.70;;;23.90;;
41799;SDS011;27468;47.460;19.034;2024-03-02T02:51:16;33.73;;;23.53;;
41799;SDS011;27468;47.460;19.034;2024-03-02T02:53:41;36.45;;;24.02;;
41799;SDS011;27468;47.460;19.034;2024-03-02T02:56:07;34.63;;;23.97;;
41799;SDS011;27468;47.460;19.034;2024-03-02T02:58:32;33.57;;;23.23;;
41799;SDS011;27468;47.460;19.034;2024-03-02T03:00:57;33.57;;;23.43;;
41799;SDS011;27468;47.460;19.034;2024-03-02T03:03:23;32.75;;;22.73;;
41799;SDS011;27468;47.460;19.034;2024-03-02T03:05:48;35.73;;;23.97;;
41799;SDS011;27468;47.460;19.034;2024-03-02T03:08:14;35.13;;;24.40;;
41799;SDS011;27468;47.460;19.034;2024-03-02T03:10:40;34.78;;;23.75;;
41799;SDS011;27468;47.460;19.034;2024-03-02T03:13:06;36.73;;;24.00;;
41799;SDS011;27468;47.460;19.034;2024-03-02T03:15:33;36.72;;;24.92;;
41799;SDS011;27468;47.460;19.034;2024-03-02T03:17:59;32.80;;;22.60;;
41799;SDS011;27468;47.460;19.034;2024-03-02T03:20:25;32.73;;;22.83;;
41799;SDS011;27468;47.460;19.034;2024-03-02T03:22:50;35.53;;;24.33;;
41799;SDS011;27468;47.460;19.034;2024-03-02T03:25:15;33.45;;;23.10;;
41799;SDS011;27468;47.460;19.034;2024-03-02T03:27:40;34.70;;;23.47;;
41799;SDS011;27468;47.460;19.034;2024-03-02T03:30:06;36.38;;;23.63;;
41799;SDS011;27468;47.460;19.034;2024-03-02T03:32:32;35.47;;;23.77;;
41799;SDS011;27468;47.460;19.034;2024-03-02T03:34:57;33.13;;;22.90;;
41799;SDS011;27468;47.460;19.034;2024-03-02T03:37:23;35.03;;;22.77;;
41799;SDS011;27468;47.460;19.034;2024-03-02T03:39:49;34.53;;;22.80;;
41799;SDS011;27468;47.460;19.034;2024-03-02T03:42:14;32.72;;;22.85;;
41799;SDS011;27468;47.460;19.034;2024-03-02T03:44:39;35.72;;;23.73;;
41799;SDS011;27468;47.460;19.034;2024-03-02T03:47:06;33.88;;;22.85;;
41799;SDS011;27468;47.460;19.034;2024-03-02T03:49:32;32.07;;;22.13;;
41799;SDS011;27468;47.460;19.034;2024-03-02T03:51:57;32.87;;;22.77;;
41799;SDS011;27468;47.460;19.034;2024-03-02T03:54:22;33.90;;;23.67;;
41799;SDS011;27468;47.460;19.034;2024-03-02T03:56:47;34.63;;;24.23;;
41799;SDS011;27468;47.460;19.034;2024-03-02T03:59:13;34.03;;;23.17;;
41799;SDS011;27468;47.460;19.034;2024-03-02T04:01:38;35.40;;;23.52;;
41799;SDS011;27468;47.460;19.034;2024-03-02T04:04:04;34.10;;;23.25;;
41799;SDS011;27468;47.460;19.034;2024-03-02T04:06:29;34.83;;;22.92;;
41799;SDS011;27468;47.460;19.034;2024-03-02T04:08:54;35.42;;;23.98;;
41799;SDS011;27468;47.460;19.034;2024-03-02T04:11:20;35.00;;;23.83;;
41799;SDS011;27468;47.460;19.034;2024-03-02T04:13:45;35.45;;;22.67;;
41799;SDS011;27468;47.460;19.034;2024-03-02T04:16:10;35.57;;;23.77;;
41799;SDS011;27468;47.460;19.034;2024-03-02T04:18:37;36.93;;;24.60;;
41799;SDS011;27468;47.460;19.034;2024-03-02T04:21:03;38.75;;;25.27;;
41799;SDS011;27468;47.460;19.034;2024-03-02T04:23:28;40.17;;;26.37;;
41799;SDS011;27468;47.460;19.034;2024-03-02T04:25:54;38.27;;;24.93;;
41799;SDS011;27468;47.460;19.034;2024-03-02T04:28:19;38.30;;;25.20;;
41799;SDS011;27468;47.460;19.034;2024-03-02T04:30:44;39.63;;;26.13;;
41799;SDS011;27468;47.460;19.034;2024-03-02T04:33:10;38.07;;;24.70;;
41799;SDS011;27468;47.460;19.034;2024-03-02T04:35:35;41.17;;;26.77;;
41799;SDS011;27468;47.460;19.034;2024-03-02T04:38:01;39.88;;;26.35;;
41799;SDS011;27468;47.460;19.034;2024-03-02T04:40:27;41.55;;;26.48;;
41799;SDS011;27468;47.460;19.034;2024-03-02T04:42:52;44.17;;;27.67;;
41799;SDS011;27468;47.460;19.034;2024-03-02T04:45:17;42.20;;;27.23;;
41799;SDS011;27468;47.460;19.034;2024-03-02T04:47:43;43.25;;;27.00;;
41799;SDS011;27468;47.460;19.034;2024-03-02T04:50:08;43.53;;;27.50;;
41799;SDS011;27468;47.460;19.034;2024-03-02T04:52:33;44.03;;;28.27;;
41799;SDS011;27468;47.460;19.034;2024-03-02T04:54:59;41.10;;;27.00;;
41799;SDS011;27468;47.460;19.034;2024-03-02T04:57:43;41.30;;;27.13;;
41799;SDS011;27468;47.460;19.034;2024-03-02T05:00:09;45.67;;;28.97;;
41799;SDS011;27468;47.460;19.034;2024-03-02T05:02:35;44.22;;;28.27;;
41799;SDS011;27468;47.460;19.034;2024-03-02T05:05:00;45.83;;;28.40;;
41799;SDS011;27468;47.460;19.034;2024-03-02T05:07:27;47.90;;;29.83;;
41799;SDS011;27468;47.460;19.034;2024-03-02T05:09:52;45.73;;;29.20;;
41799;SDS011;27468;47.460;19.034;2024-03-02T05:12:18;46.50;;;29.20;;
41799;SDS011;27468;47.460;19.034;2024-03-02T05:15:01;47.80;;;30.02;;
41799;SDS011;27468;47.460;19.034;2024-03-02T05:17:27;52.10;;;31.20;;
41799;SDS011;27468;47.460;19.034;2024-03-02T05:19:52;48.13;;;29.67;;
41799;SDS011;27468;47.460;19.034;2024-03-02T05:22:17;52.73;;;31.03;;
41799;SDS011;27468;47.460;19.034;2024-03-02T05:24:43;50.07;;;31.07;;
41799;SDS011;27468;47.460;19.034;2024-03-02T05:27:08;49.97;;;30.90;;
41799;SDS011;27468;47.460;19.034;2024-03-02T05:29:33;50.17;;;30.60;;
41799;SDS011;27468;47.460;19.034;2024-03-02T05:31:59;50.93;;;30.53;;
41799;SDS011;27468;47.460;19.034;2024-03-02T05:34:24;49.75;;;30.33;;
41799;SDS011;27468;47.460;19.034;2024-03-02T05:36:49;63.08;;;35.17;;
41799;SDS011;27468;47.460;19.034;2024-03-02T05:39:15;58.47;;;34.20;;
41799;SDS011;27468;47.460;19.034;2024-03-02T05:41:40;60.83;;;34.47;;
41799;SDS011;27468;47.460;19.034;2024-03-02T05:44:06;50.42;;;31.27;;
41799;SDS011;27468;47.460;19.034;2024-03-02T05:46:31;56.90;;;33.13;;
41799;SDS011;27468;47.460;19.034;2024-03-02T05:48:57;56.97;;;33.33;;
41799;SDS011;27468;47.460;19.034;2024-03-02T05:51:23;57.83;;;34.28;;
41799;SDS011;27468;47.460;19.034;2024-03-02T05:53:48;53.70;;;32.73;;
41799;SDS011;27468;47.460;19.034;2024-03-02T05:56:13;55.63;;;32.80;;
41799;SDS011;27468;47.460;19.034;2024-03-02T05:58:40;58.20;;;33.97;;
41799;SDS011;27468;47.460;19.034;2024-03-02T06:01:11;58.22;;;33.95;;
41799;SDS011;27468;47.460;19.034;2024-03-02T06:03:37;52.73;;;32.47;;
41799;SDS011;27468;47.460;19.034;2024-03-02T06:06:02;54.83;;;33.00;;
41799;SDS011;27468;47.460;19.034;2024-03-02T06:08:27;57.30;;;33.80;;
41799;SDS011;27468;47.460;19.034;2024-03-02T06:10:53;53.73;;;32.10;;
41799;SDS011;27468;47.460;19.034;2024-03-02T06:13:18;54.17;;;31.73;;
41799;SDS011;27468;47.460;19.034;2024-03-02T06:15:43;52.77;;;32.37;;
41799;SDS011;27468;47.460;19.034;2024-03-02T06:18:09;58.13;;;33.80;;
41799;SDS011;27468;47.460;19.034;2024-03-02T06:20:34;55.57;;;32.90;;
41799;SDS011;27468;47.460;19.034;2024-03-02T06:23:00;48.53;;;30.10;;
41799;SDS011;27468;47.460;19.034;2024-03-02T06:25:25;53.47;;;32.80;;
41799;SDS011;27468;47.460;19.034;2024-03-02T06:27:51;58.00;;;34.33;;
41799;SDS011;27468;47.460;19.034;2024-03-02T06:30:16;56.97;;;33.47;;
41799;SDS011;27468;47.460;19.034;2024-03-02T06:32:41;56.63;;;33.37;;
41799;SDS011;27468;47.460;19.034;2024-03-02T06:35:07;51.23;;;31.03;;
41799;SDS011;27468;47.460;19.034;2024-03-02T06:37:35;52.22;;;32.28;;
41799;SDS011;27468;47.460;19.034;2024-03-02T06:40:00;48.97;;;30.60;;
41799;SDS011;27468;47.460;19.034;2024-03-02T06:42:26;51.77;;;32.60;;
41799;SDS011;27468;47.460;19.034;2024-03-02T06:44:51;56.60;;;33.87;;
41799;SDS011;27468;47.460;19.034;2024-03-02T06:47:16;47.73;;;31.30;;
41799;SDS011;27468;47.460;19.034;2024-03-02T06:49:42;54.20;;;32.67;;
41799;SDS011;27468;47.460;19.034;2024-03-02T06:52:08;54.30;;;33.42;;
41799;SDS011;27468;47.460;19.034;2024-03-02T06:54:33;49.13;;;31.40;;
41799;SDS011;27468;47.460;19.034;2024-03-02T06:56:59;50.85;;;31.58;;
41799;SDS011;27468;47.460;19.034;2024-03-02T06:59:25;49.60;;;32.03;;
41799;SDS011;27468;47.460;19.034;2024-03-02T07:01:50;47.30;;;29.63;;
41799;SDS011;27468;47.460;19.034;2024-03-02T07:04:15;51.17;;;32.23;;
41799;SDS011;27468;47.460;19.034;2024-03-02T07:06:41;53.00;;;32.20;;
41799;SDS011;27468;47.460;19.034;2024-03-02T07:09:06;48.90;;;31.93;;
41799;SDS011;27468;47.460;19.034;2024-03-02T07:11:36;52.23;;;32.47;;
41799;SDS011;27468;47.460;19.034;2024-03-02T07:14:01;54.15;;;34.20;;
41799;SDS011;27468;47.460;19.034;2024-03-02T07:16:27;47.20;;;31.13;;
41799;SDS011;27468;47.460;19.034;2024-03-02T07:18:53;47.97;;;31.50;;
41799;SDS011;27468;47.460;19.034;2024-03-02T07:21:20;46.53;;;29.88;;
41799;SDS011;27468;47.460;19.034;2024-03-02T07:23:47;48.07;;;31.27;;
41799;SDS011;27468;47.460;19.034;2024-03-02T07:26:12;50.40;;;32.05;;
41799;SDS011;27468;47.460;19.034;2024-03-02T07:28:38;46.72;;;30.17;;
41799;SDS011;27468;47.460;19.034;2024-03-02T07:31:05;49.38;;;31.83;;
41799;SDS011;27468;47.460;19.034;2024-03-02T07:33:30;47.83;;;31.48;;
41799;SDS011;27468;47.460;19.034;2024-03-02T07:35:56;53.63;;;33.47;;
41799;SDS011;27468;47.460;19.034;2024-03-02T07:38:24;53.47;;;32.95;;
41799;SDS011;27468;47.460;19.034;2024-03-02T07:40:49;51.57;;;32.53;;
41799;SDS011;27468;47.460;19.034;2024-03-02T07:43:19;48.70;;;31.77;;
41799;SDS011;27468;47.460;19.034;2024-03-02T07:45:45;48.45;;;32.05;;
41799;SDS011;27468;47.460;19.034;2024-03-02T07:48:11;47.95;;;31.05;;
41799;SDS011;27468;47.460;19.034;2024-03-02T07:50:36;53.25;;;33.35;;
41799;SDS011;27468;47.460;19.034;2024-03-02T07:53:03;51.63;;;32.60;;
41799;SDS011;27468;47.460;19.034;2024-03-02T07:55:33;48.07;;;31.50;;
41799;SDS011;27468;47.460;19.034;2024-03-02T07:57:59;49.22;;;31.77;;
41799;SDS011;27468;47.460;19.034;2024-03-02T08:00:26;49.80;;;32.25;;
41799;SDS011;27468;47.460;19.034;2024-03-02T08:02:52;53.50;;;32.95;;
41799;SDS011;27468;47.460;19.034;2024-03-02T08:05:18;46.83;;;30.60;;
41799;SDS011;27468;47.460;19.034;2024-03-02T08:07:44;53.55;;;32.33;;
41799;SDS011;27468;47.460;19.034;2024-03-02T08:10:11;53.00;;;33.15;;
41799;SDS011;27468;47.460;19.034;2024-03-02T08:12:36;52.23;;;33.10;;
41799;SDS011;27468;47.460;19.034;2024-03-02T08:15:02;53.43;;;33.77;;
41799;SDS011;27468;47.460;19.034;2024-03-02T08:17:27;50.33;;;32.93;;
41799;SDS011;27468;47.460;19.034;2024-03-02T08:19:53;49.40;;;31.80;;
41799;SDS011;27468;47.460;19.034;2024-03-02T08:22:18;50.88;;;32.72;;
41799;SDS011;27468;47.460;19.034;2024-03-02T08:24:44;55.83;;;34.92;;
41799;SDS011;27468;47.460;19.034;2024-03-02T08:27:09;56.83;;;34.77;;
41799;SDS011;27468;47.460;19.034;2024-03-02T08:29:35;53.90;;;33.57;;
41799;SDS011;27468;47.460;19.034;2024-03-02T08:32:00;51.83;;;33.33;;
41799;SDS011;27468;47.460;19.034;2024-03-02T08:34:26;49.30;;;32.95;;
41799;SDS011;27468;47.460;19.034;2024-03-02T08:36:51;52.27;;;32.77;;
41799;SDS011;27468;47.460;19.034;2024-03-02T08:39:17;53.07;;;33.17;;
41799;SDS011;27468;47.460;19.034;2024-03-02T08:41:44;50.28;;;32.95;;
41799;SDS011;27468;47.460;19.034;2024-03-02T08:44:10;46.03;;;30.38;;
41799;SDS011;27468;47.460;19.034;2024-03-02T08:46:36;50.20;;;32.45;;
41799;SDS011;27468;47.460;19.034;2024-03-02T08:49:02;52.05;;;32.70;;
41799;SDS011;27468;47.460;19.034;2024-03-02T08:51:28;46.83;;;30.37;;
41799;SDS011;27468;47.460;19.034;2024-03-02T08:53:53;51.37;;;32.27;;
41799;SDS011;27468;47.460;19.034;2024-03-02T08:56:18;54.77;;;33.83;;
41799;SDS011;27468;47.460;19.034;2024-03-02T08:58:45;49.88;;;31.50;;
41799;SDS011;27468;47.460;19.034;2024-03-02T09:01:10;44.33;;;28.27;;
41799;SDS011;27468;47.460;19.034;2024-03-02T09:03:36;47.53;;;30.40;;
41799;SDS011;27468;47.460;19.034;2024-03-02T09:06:02;45.42;;;29.88;;
41799;SDS011;27468;47.460;19.034;2024-03-02T09:08:28;44.13;;;28.53;;
41799;SDS011;27468;47.460;19.034;2024-03-02T09:10:53;42.60;;;28.00;;
41799;SDS011;27468;47.460;19.034;2024-03-02T09:13:19;44.53;;;28.77;;
41799;SDS011;27468;47.460;19.034;2024-03-02T09:15:45;42.67;;;28.23;;
41799;SDS011;27468;47.460;19.034;2024-03-02T09:18:10;47.27;;;30.43;;
41799;SDS011;27468;47.460;19.034;2024-03-02T09:20:36;43.57;;;28.80;;
41799;SDS011;27468;47.460;19.034;2024-03-02T09:23:01;43.47;;;28.67;;
41799;SDS011;27468;47.460;19.034;2024-03-02T09:25:26;41.80;;;27.50;;
41799;SDS011;27468;47.460;19.034;2024-03-02T09:27:52;41.63;;;28.07;;
41799;SDS011;27468;47.460;19.034;2024-03-02T09:30:17;44.93;;;28.87;;
41799;SDS011;27468;47.460;19.034;2024-03-02T09:32:42;45.67;;;29.37;;
41799;SDS011;27468;47.460;19.034;2024-03-02T09:35:08;40.83;;;27.93;;
41799;SDS011;27468;47.460;19.034;2024-03-02T09:37:34;38.47;;;26.73;;
41799;SDS011;27468;47.460;19.034;2024-03-02T09:40:00;39.38;;;27.00;;
41799;SDS011;27468;47.460;19.034;2024-03-02T09:42:25;37.97;;;26.67;;
41799;SDS011;27468;47.460;19.034;2024-03-02T09:44:51;37.23;;;26.13;;
41799;SDS011;27468;47.460;19.034;2024-03-02T09:47:17;37.00;;;25.90;;
41799;SDS011;27468;47.460;19.034;2024-03-02T09:49:42;35.08;;;24.10;;
41799;SDS011;27468;47.460;19.034;2024-03-02T09:52:08;34.20;;;24.73;;
41799;SDS011;27468;47.460;19.034;2024-03-02T09:54:35;35.10;;;25.40;;
41799;SDS011;27468;47.460;19.034;2024-03-02T09:57:01;32.30;;;24.27;;
41799;SDS011;27468;47.460;19.034;2024-03-02T09:59:27;34.17;;;23.97;;
41799;SDS011;27468;47.460;19.034;2024-03-02T10:02:00;33.47;;;24.80;;
41799;SDS011;27468;47.460;19.034;2024-03-02T10:04:27;34.05;;;24.92;;
41799;SDS011;27468;47.460;19.034;2024-03-02T10:09:51;30.42;;;22.25;;
41799;SDS011;27468;47.460;19.034;2024-03-02T10:12:17;29.42;;;22.13;;
41799;SDS011;27468;47.460;19.034;2024-03-02T10:14:43;31.20;;;23.07;;
41799;SDS011;27468;47.460;19.034;2024-03-02T10:17:13;30.70;;;22.80;;
41799;SDS011;27468;47.460;19.034;2024-03-02T10:19:40;31.58;;;23.45;;
41799;SDS011;27468;47.460;19.034;2024-03-02T10:22:06;30.38;;;22.52;;
41799;SDS011;27468;47.460;19.034;2024-03-02T10:27:09;32.28;;;23.70;;
41799;SDS011;27468;47.460;19.034;2024-03-02T10:29:52;30.73;;;22.60;;
41799;SDS011;27468;47.460;19.034;2024-03-02T10:32:18;30.40;;;22.48;;
41799;SDS011;27468;47.460;19.034;2024-03-02T10:34:47;28.90;;;21.40;;
41799;SDS011;27468;47.460;19.034;2024-03-02T10:37:12;31.27;;;22.80;;
41799;SDS011;27468;47.460;19.034;2024-03-02T10:39:39;30.27;;;22.13;;
41799;SDS011;27468;47.460;19.034;2024-03-02T10:42:06;33.63;;;23.95;;
41799;SDS011;27468;47.460;19.034;2024-03-02T10:44:32;30.75;;;22.83;;
41799;SDS011;27468;47.460;19.034;2024-03-02T10:47:02;29.40;;;22.35;;
41799;SDS011;27468;47.460;19.034;2024-03-02T10:49:30;33.08;;;24.02;;
41799;SDS011;27468;47.460;19.034;2024-03-02T10:51:57;32.45;;;23.60;;
41799;SDS011;27468;47.460;19.034;2024-03-02T10:54:23;27.70;;;21.10;;
41799;SDS011;27468;47.460;19.034;2024-03-02T10:56:51;27.77;;;21.00;;
41799;SDS011;27468;47.460;19.034;2024-03-02T11:01:58;26.95;;;20.42;;
41799;SDS011;27468;47.460;19.034;2024-03-02T11:04:26;29.63;;;21.42;;
41799;SDS011;27468;47.460;19.034;2024-03-02T11:07:02;27.53;;;20.37;;
41799;SDS011;27468;47.460;19.034;2024-03-02T11:09:31;28.67;;;21.38;;
41799;SDS011;27468;47.460;19.034;2024-03-02T11:14:56;26.65;;;19.75;;
41799;SDS011;27468;47.460;19.034;2024-03-02T11:17:23;25.35;;;19.80;;
41799;SDS011;27468;47.460;19.034;2024-03-02T11:19:50;25.30;;;19.30;;
41799;SDS011;27468;47.460;19.034;2024-03-02T11:22:15;27.38;;;19.77;;
41799;SDS011;27468;47.460;19.034;2024-03-02T11:24:51;25.30;;;19.70;;
41799;SDS011;27468;47.460;19.034;2024-03-02T11:33:11;24.27;;;19.08;;
41799;SDS011;27468;47.460;19.034;2024-03-02T11:35:37;23.33;;;18.67;;
41799;SDS011;27468;47.460;19.034;2024-03-02T11:38:07;23.58;;;18.88;;
41799;SDS011;27468;47.460;19.034;2024-03-02T11:40:34;19.37;;;15.73;;
41799;SDS011;27468;47.460;19.034;2024-03-02T11:42:59;21.07;;;17.10;;
41799;SDS011;27468;47.460;19.034;2024-03-02T11:45:28;23.88;;;17.75;;
41799;SDS011;27468;47.460;19.034;2024-03-02T11:47:54;21.05;;;16.25;;
41799;SDS011;27468;47.460;19.034;2024-03-02T11:50:30;19.08;;;15.82;;
41799;SDS011;27468;47.460;19.034;2024-03-02T11:52:58;18.42;;;14.95;;
41799;SDS011;27468;47.460;19.034;2024-03-02T11:55:25;16.35;;;13.23;;
41799;SDS011;27468;47.460;19.034;2024-03-02T11:57:54;17.25;;;13.40;;
41799;SDS011;27468;47.460;19.034;2024-03-02T12:00:20;17.67;;;14.35;;
41799;SDS011;27468;47.460;19.034;2024-03-02T12:02:46;17.70;;;14.80;;
41799;SDS011;27468;47.460;19.034;2024-03-02T12:05:24;17.03;;;13.87;;
41799;SDS011;27468;47.460;19.034;2024-03-02T12:07:50;17.77;;;14.05;;
41799;SDS011;27468;47.460;19.034;2024-03-02T12:10:21;18.75;;;15.27;;
41799;SDS011;27468;47.460;19.034;2024-03-02T12:12:46;20.05;;;15.18;;
41799;SDS011;27468;47.460;19.034;2024-03-02T12:15:12;17.87;;;14.77;;
41799;SDS011;27468;47.460;19.034;2024-03-02T12:17:37;19.37;;;15.43;;
41799;SDS011;27468;47.460;19.034;2024-03-02T12:20:04;18.25;;;15.43;;
41799;SDS011;27468;47.460;19.034;2024-03-02T12:22:30;19.77;;;15.10;;
41799;SDS011;27468;47.460;19.034;2024-03-02T12:24:56;18.73;;;15.18;;
41799;SDS011;27468;47.460;19.034;2024-03-02T12:27:21;19.58;;;15.20;;
41799;SDS011;27468;47.460;19.034;2024-03-02T12:29:47;18.00;;;14.77;;
41799;SDS011;27468;47.460;19.034;2024-03-02T12:32:13;18.42;;;14.93;;
41799;SDS011;27468;47.460;19.034;2024-03-02T12:34:39;19.23;;;15.77;;
41799;SDS011;27468;47.460;19.034;2024-03-02T12:37:04;18.57;;;15.30;;
41799;SDS011;27468;47.460;19.034;2024-03-02T12:39:30;18.03;;;15.10;;
41799;SDS011;27468;47.460;19.034;2024-03-02T12:41:57;18.33;;;15.40;;
41799;SDS011;27468;47.460;19.034;2024-03-02T12:44:23;20.00;;;16.03;;
41799;SDS011;27468;47.460;19.034;2024-03-02T12:46:48;20.30;;;15.80;;
41799;SDS011;27468;47.460;19.034;2024-03-02T12:49:14;20.30;;;16.37;;
41799;SDS011;27468;47.460;19.034;2024-03-02T12:51:45;20.95;;;16.08;;
41799;SDS011;27468;47.460;19.034;2024-03-02T12:54:16;21.52;;;16.85;;
41799;SDS011;27468;47.460;19.034;2024-03-02T12:56:42;21.58;;;16.88;;
41799;SDS011;27468;47.460;19.034;2024-03-02T12:59:17;21.50;;;17.10;;
41799;SDS011;27468;47.460;19.034;2024-03-02T13:01:55;20.35;;;16.27;;
41799;SDS011;27468;47.460;19.034;2024-03-02T13:04:27;20.33;;;16.33;;
41799;SDS011;27468;47.460;19.034;2024-03-02T13:06:54;21.90;;;17.25;;
41799;SDS011;27468;47.460;19.034;2024-03-02T13:09:22;21.75;;;16.60;;
41799;SDS011;27468;47.460;19.034;2024-03-02T13:11:48;21.30;;;16.70;;
41799;SDS011;27468;47.460;19.034;2024-03-02T13:14:14;22.83;;;17.38;;
41799;SDS011;27468;47.460;19.034;2024-03-02T13:16:40;24.77;;;17.55;;
41799;SDS011;27468;47.460;19.034;2024-03-02T13:19:09;23.23;;;17.57;;
41799;SDS011;27468;47.460;19.034;2024-03-02T13:21:35;24.88;;;18.13;;
41799;SDS011;27468;47.460;19.034;2024-03-02T13:24:00;24.90;;;17.67;;
41799;SDS011;27468;47.460;19.034;2024-03-02T13:26:26;23.08;;;17.17;;
41799;SDS011;27468;47.460;19.034;2024-03-02T13:28:52;22.10;;;16.43;;
41799;SDS011;27468;47.460;19.034;2024-03-02T13:31:18;21.17;;;16.33;;
41799;SDS011;27468;47.460;19.034;2024-03-02T13:33:43;23.53;;;16.90;;
41799;SDS011;27468;47.460;19.034;2024-03-02T13:36:09;25.33;;;17.00;;
41799;SDS011;27468;47.460;19.034;2024-03-02T13:38:34;23.75;;;16.77;;
41799;SDS011;27468;47.460;19.034;2024-03-02T13:41:01;22.08;;;16.58;;
41799;SDS011;27468;47.460;19.034;2024-03-02T13:43:26;23.60;;;16.07;;
41799;SDS011;27468;47.460;19.034;2024-03-02T13:45:52;25.23;;;16.67;;
41799;SDS011;27468;47.460;19.034;2024-03-02T13:48:18;25.45;;;16.33;;
41799;SDS011;27468;47.460;19.034;2024-03-02T13:50:44;24.00;;;15.93;;
41799;SDS011;27468;47.460;19.034;2024-03-02T13:53:10;28.27;;;17.70;;
41799;SDS011;27468;47.460;19.034;2024-03-02T13:55:36;26.47;;;15.60;;
41799;SDS011;27468;47.460;19.034;2024-03-02T13:58:02;26.90;;;17.50;;
41799;SDS011;27468;47.460;19.034;2024-03-02T14:00:28;25.30;;;16.17;;
41799;SDS011;27468;47.460;19.034;2024-03-02T14:02:54;24.83;;;16.37;;
41799;SDS011;27468;47.460;19.034;2024-03-02T14:05:19;24.63;;;15.93;;
41799;SDS011;27468;47.460;19.034;2024-03-02T14:07:45;24.47;;;16.20;;
41799;SDS011;27468;47.460;19.034;2024-03-02T14:10:10;25.47;;;15.93;;
41799;SDS011;27468;47.460;19.034;2024-03-02T14:12:36;27.07;;;16.53;;
41799;SDS011;27468;47.460;19.034;2024-03-02T14:15:02;26.73;;;16.70;;
41799;SDS011;27468;47.460;19.034;2024-03-02T14:17:27;27.37;;;17.20;;
41799;SDS011;27468;47.460;19.034;2024-03-02T14:19:53;27.90;;;16.75;;
41799;SDS011;27468;47.460;19.034;2024-03-02T14:22:19;26.70;;;16.60;;
41799;SDS011;27468;47.460;19.034;2024-03-02T14:24:45;28.03;;;17.43;;